x

Tanner Bank - 121nm West Of San Diego, Ca (46047) Wave Buoy

3:50pm - Wed 26th Nov 2014 All times are PST. -8 hours from GMT.

  • Sig Wave height 4.3ft
  • Swell Direction
  • Peak Period 13s
  • Average Period 9s
  • Wind
    11mph, 13mph gusts
  • Sea Temp 66°f
  • Air Temp 64°f
  • Sea Pressure 1020.4mb
  • Tanner Bank - 121nm West Of San Diego, Ca
  • Tanner Bank - 121nm West Of San Diego, Ca

More Historic Weather Station data

Upgrade to MSW Pro to gain access to the past 30 days of data for over 8000 Wavebouys and Weather Stations around the globe.

Join Pro

Comparision Forecast

View Surf forecast
   
Wed 11/26 3:50pm 4.5ft 13s 9s 11 13 mph 1020.4mb 66f 64f
2:50pm 4.5ft 13s 10s 9 11 mph 1020.6mb 66f 64f
1:50pm 5ft 13s 10s 9 11 mph 1020.9mb 66f 64f
12:50pm 4.5ft 13s 10s 11
mph
1021.4mb 66f 64f
11:50am 4.5ft 13s 10s 9
mph
1022.4mb 65f 64f
10:50am 4ft 14s 9s 7 9 mph 1023.3mb 65f 64f
9:50am 4.5ft 13s 10s 7 9 mph 1023.8mb 65f 64f
8:50am 4.5ft 11s 10s 9 11 mph 1023.6mb 65f 64f
7:50am 4ft 13s 9s 9 11 mph 1023.3mb 65f 64f
6:50am 4.5ft 14s 10s 9
mph
1022.9mb 65f 64f
5:50am 4.5ft 14s 10s 9 11 mph 1022.7mb 65f 64f
4:50am 5ft 14s 9s 9 11 mph 1022.6mb 65f 64f
3:50am 5.5ft 12s 10s 11
mph
1023mb 65f 65f
2:50am 6ft 13s 10s 9 11 mph 1023.7mb 65f 65f
1:50am 6.5ft 14s 10s 9 11 mph 1023.8mb 65f 65f
12:50am 5.5ft 15s 10s 7 9 mph 1024.3mb 65f 65f
Tue 11/25 11:50pm 6ft 13s 10s 9 11 mph 1025mb 65f 65f
10:50pm 6ft 14s 10s 9 11 mph 1025.5mb 65f 65f
9:50pm 6ft 14s 10s 9
mph
1025.7mb 65f 65f
8:50pm 6.5ft 14s 10s 7 9 mph 1025.9mb 65f 65f
7:50pm 6.5ft 14s 10s 9 11 mph 1025.7mb 65f 65f
6:50pm 7ft 14s 10s 7 9 mph 1025.5mb 65f 65f
5:50pm 6ft 15s 10s 7 9 mph 1025.3mb 66f 65f
4:50pm 7ft 13s 10s 2 4 mph 1025.5mb 66f 66f
3:50pm 6.5ft 12s 10s 2 4 mph 1025.5mb 66f 67f
2:50pm 7ft 14s 10s 2
mph
1025.5mb 66f 67f
1:50pm 7.5ft 13s 10s 7
mph
1025.4mb 66f 66f
12:50pm 6.5ft 15s 10s 7
mph
1026.1mb 66f 66f
11:50am 7ft 14s 10s 4
mph
1027mb 66f 66f
10:50am 6.5ft 14s 10s 7 9 mph 1027.8mb 65f 66f
9:50am 7ft 14s 10s 7 9 mph 1028.3mb 65f 66f
8:50am 6ft 14s 9s 7 9 mph 1028.2mb 65f 67f
7:50am 7ft 14s 9s 9
mph
1027.5mb 65f 67f
6:50am 8ft 14s 10s 9
mph
1027mb 65f 66f
5:50am 7.5ft 14s 9s 7 9 mph 1026.5mb 65f 66f
4:50am 7ft 14s 9s 7 9 mph 1026mb 65f 65f
3:50am 7ft 13s 9s 9 11 mph 1025.7mb 65f 65f
2:50am 8ft 12s 9s 7 9 mph 1025.6mb 65f 65f
1:50am 8ft 12s 9s 7 9 mph 1025.5mb 65f 66f
12:50am 8ft 13s 9s 9 11 mph 1025.6mb 65f 66f
Mon 11/24 11:50pm 8ft 13s 9s 9 11 mph 1025.4mb 65f 65f
10:50pm 7.5ft 14s 8s 9 11 mph 1025.1mb 65f 65f
9:50pm 8ft 13s 9s 9 11 mph 1025mb 65f 65f
8:50pm 8ft 13s 8s 11 13 mph 1024.8mb 65f 65f
7:50pm 8ft 13s 9s 11 13 mph 1024.4mb 65f 65f
6:50pm 8ft 13s 9s 9 11 mph 1023.8mb 65f 65f
5:50pm 7ft 13s 8s 9
mph
1022.8mb 65f 65f
4:50pm 7ft 13s 8s 7 9 mph 1022.4mb 65f 66f
3:50pm 7ft 13s 7s 7 9 mph 1022.1mb 65f 65f
2:50pm 8ft 13s 8s 9 11 mph 1021.7mb 65f 65f
1:50pm 9ft 14s 8s 13 16 mph 1021.7mb 65f 65f
12:50pm 8.5ft 12s 8s 13 16 mph 1022.2mb 65f 65f
11:50am 8.5ft 14s 8s 16 18 mph 1022.6mb 65f 64f
10:50am 8ft 14s 8s 13 16 mph 1023.3mb 65f 65f
9:50am 8ft 14s 8s 13 18 mph 1023.4mb 65f 65f
8:50am 8ft 14s 8s 16 18 mph 1022.7mb 65f 65f
7:50am 8ft 13s 7s 16 20 mph 1021.8mb 65f 64f
6:50am 9ft 14s 8s 18 20 mph 1021mb 65f 64f
5:50am 8ft 14s 7s 16 18 mph 1020.6mb 65f 64f
4:50am 9ft 15s 7s 20 22 mph 1020.3mb 65f 64f
3:50am 10ft 14s 8s 18 20 mph 1020.3mb 65f 64f
2:50am 9ft 15s 8s 18 20 mph 1020.3mb 65f 64f
1:50am 9ft 14s 8s 16 20 mph 1020.3mb 65f 64f
12:50am 10ft 14s 9s 18 20 mph 1020.3mb 65f 64f
Sun 11/23 11:50pm 9ft 14s 8s 13 18 mph 1020.8mb 65f 64f
10:50pm 9.5ft 14s 8s 16 18 mph 1020.9mb 65f 64f
9:50pm 9.5ft 14s 8s 16 18 mph 1021mb 65f 64f
8:50pm 9.5ft 15s 8s 16 20 mph 1020.6mb 65f 64f
7:50pm 10ft 14s 8s 16 20 mph 1020.3mb 65f 64f
6:50pm 10.5ft 15s 8s 18 20 mph 1020.1mb 65f 65f
5:50pm 10ft 15s 8s 18 22 mph 1019.8mb 65f 65f
4:50pm 9ft 14s 8s 16 20 mph 1019.7mb 65f 65f
3:50pm 9.5ft 15s 8s 16 18 mph 1019.5mb 65f 65f
2:50pm 9ft 15s 8s 18 22 mph 1019.4mb 65f 65f
1:50pm 10ft 15s 8s 18 22 mph 1019.2mb 65f 65f
12:50pm 9ft 14s 8s 18 22 mph 1019.5mb 65f 64f
11:50am 9ft 14s 7s 16 20 mph 1020.4mb 65f 64f
10:50am 9ft 15s 7s 16 18 mph 1020.9mb 65f 64f
9:50am 9ft 13s 7s 18 22 mph 1021.3mb 65f 64f
8:50am 9ft 8s 7s 18 22 mph 1020.7mb 65f 64f
7:50am 9.5ft 8s  -  20 25 mph 1019.9mb 65f 64f
6:50am 10ft 8s 7s 22 27 mph 1018.8mb 65f 64f
5:50am 9ft 7s 6s 25 31 mph 1017.8mb 65f 64f
4:50am 9ft 8s 6s 25 29 mph 1017.2mb 65f 64f
3:50am 9ft 7s 6s 25 29 mph 1017mb 65f 64f
1:50am 9ft 8s 6s 27 34 mph 1017.3mb 65f 63f
12:50am 9ft 7s 6s 22 29 mph 1017.8mb 65f 63f